createdAt,value
2019-03-13T00:00:55.690Z,99506.88
2019-03-13T00:03:24.855Z,99494.50
2019-03-13T00:05:54.177Z,99501.36
2019-03-13T00:08:23.057Z,99515.66
2019-03-13T00:10:52.036Z,99539.89
2019-03-13T00:13:20.981Z,99527.95
2019-03-13T00:15:50.103Z,99548.39
2019-03-13T00:18:19.001Z,99550.73
2019-03-13T00:20:47.916Z,99561.13
2019-03-13T00:23:17.369Z,99568.61
2019-03-13T00:25:46.224Z,99566.13
2019-03-13T00:28:15.158Z,99592.28
2019-03-13T00:30:44.045Z,99590.70
2019-03-13T00:33:13.030Z,99600.48
2019-03-13T00:35:42.013Z,99612.33
2019-03-13T00:38:11.032Z,99634.23
2019-03-13T00:40:39.949Z,99606.94
2019-03-13T00:43:08.861Z,99620.06
2019-03-13T00:45:37.740Z,99632.45
2019-03-13T00:48:06.764Z,99622.47
2019-03-13T00:50:35.551Z,99624.37
2019-03-13T00:53:04.465Z,99634.91
2019-03-13T00:55:33.408Z,99647.98
2019-03-13T00:58:02.288Z,99649.45
2019-03-13T01:01:04.781Z,99658.06
2019-03-13T01:03:41.260Z,99683.94
2019-03-13T01:06:17.601Z,99658.43
2019-03-13T01:08:48.902Z,99668.28
2019-03-13T01:11:20.312Z,99667.44
2019-03-13T01:13:51.538Z,99667.58
2019-03-13T01:16:22.535Z,99658.70
2019-03-13T01:18:53.538Z,99668.48
2019-03-13T01:21:25.195Z,99666.11
2019-03-13T01:23:57.484Z,99681.70
2019-03-13T01:26:29.360Z,99679.98
2019-03-13T01:28:58.341Z,99684.69
2019-03-13T01:31:44.216Z,99688.09
2019-03-13T01:34:23.461Z,99700.77
2019-03-13T01:36:52.426Z,99690.70
2019-03-13T01:39:21.284Z,99691.53
2019-03-13T01:41:50.290Z,99702.39
2019-03-13T01:44:19.234Z,99694.87
2019-03-13T01:46:48.217Z,99703.67
2019-03-13T01:49:17.118Z,99711.03
2019-03-13T01:51:46.089Z,99716.39
2019-03-13T01:54:15.091Z,99723.05
2019-03-13T01:56:43.849Z,99734.13
2019-03-13T01:59:12.723Z,99749.04
2019-03-13T02:01:41.638Z,99746.94
2019-03-13T02:04:10.534Z,99759.41
2019-03-13T02:06:39.681Z,99753.45
2019-03-13T02:09:08.741Z,99766.68
2019-03-13T02:11:37.815Z,99762.02
2019-03-13T02:14:06.763Z,99772.83
2019-03-13T02:16:35.759Z,99768.64
2019-03-13T02:19:04.762Z,99771.27
2019-03-13T02:21:33.593Z,99774.09
2019-03-13T02:24:02.400Z,99779.92
2019-03-13T02:26:31.353Z,99778.45
2019-03-13T02:29:00.333Z,99787.80
2019-03-13T02:31:29.270Z,99773.83
2019-03-13T02:33:58.209Z,99777.95
2019-03-13T02:36:27.138Z,99787.97
2019-03-13T02:38:56.066Z,99783.38
2019-03-13T02:41:24.912Z,99791.26
2019-03-13T02:43:53.910Z,99788.73
2019-03-13T02:46:22.857Z,99790.34
2019-03-13T02:48:51.761Z,99788.79
2019-03-13T02:51:20.764Z,99789.86
2019-03-13T02:53:49.592Z,99789.45
2019-03-13T02:56:18.506Z,99795.33
2019-03-13T02:58:47.517Z,99795.55
2019-03-13T03:01:30.478Z,99787.09
2019-03-13T03:04:01.516Z,99797.44
2019-03-13T03:06:30.404Z,99802.91
2019-03-13T03:08:59.439Z,99809.27
2019-03-13T03:11:28.414Z,99802.28
2019-03-13T03:13:57.275Z,99799.11
2019-03-13T03:16:26.910Z,99794.22
2019-03-13T03:18:55.856Z,99794.16
2019-03-13T03:21:24.763Z,99795.17
2019-03-13T03:23:53.665Z,99791.18
2019-03-13T03:26:22.555Z,99790.77
2019-03-13T03:28:51.429Z,99788.98
2019-03-13T03:31:20.191Z,99786.69
2019-03-13T03:34:03.026Z,99780.45
2019-03-13T03:36:32.419Z,99776.03
2019-03-13T03:39:01.392Z,99773.31
2019-03-13T03:41:31.006Z,99756.12
2019-03-13T03:43:59.994Z,99767.98
2019-03-13T03:46:28.910Z,99769.12
2019-03-13T03:48:57.795Z,99768.16
2019-03-13T03:51:26.686Z,99782.64
2019-03-13T03:53:55.628Z,99770.05
2019-03-13T03:56:24.439Z,99781.63
2019-03-13T03:58:53.414Z,99777.83
2019-03-13T04:01:22.377Z,99782.22
2019-03-13T04:03:51.333Z,99789.28
2019-03-13T04:06:20.512Z,99786.28
2019-03-13T04:08:49.403Z,99799.20
2019-03-13T04:11:18.390Z,99803.44
2019-03-13T04:13:47.310Z,99809.95
2019-03-13T04:16:16.198Z,99808.30
2019-03-13T04:18:45.199Z,99817.42
2019-03-13T04:21:14.087Z,99813.33
2019-03-13T04:23:42.952Z,99828.89
2019-03-13T04:26:13.093Z,99826.63
2019-03-13T04:28:42.360Z,99820.32
2019-03-13T04:31:11.468Z,99816.63
2019-03-13T04:33:40.323Z,99815.11
2019-03-13T04:36:09.214Z,99822.24
2019-03-13T04:38:38.060Z,99807.33
2019-03-13T04:41:06.845Z,99809.75
2019-03-13T04:43:35.755Z,99807.80
2019-03-13T04:46:04.721Z,99805.28
2019-03-13T04:48:33.518Z,99796.91
2019-03-13T04:51:02.623Z,99794.87
2019-03-13T04:53:31.461Z,99791.77
2019-03-13T04:56:00.374Z,99797.09
2019-03-13T04:58:29.283Z,99794.56
2019-03-13T05:00:58.156Z,99788.50
2019-03-13T05:03:27.038Z,99788.50
2019-03-13T05:06:01.631Z,99797.30
2019-03-13T05:08:45.037Z,99784.45
2019-03-13T05:11:07.510Z,99791.38
2019-03-13T05:13:36.402Z,99788.92
2019-03-13T05:16:05.284Z,99795.58
2019-03-13T05:18:34.163Z,99795.17
2019-03-13T05:21:03.317Z,99797.74
2019-03-13T05:23:32.195Z,99774.38
2019-03-13T05:26:01.046Z,99798.67
2019-03-13T05:28:29.809Z,99798.00
2019-03-13T05:30:58.676Z,99799.43
2019-03-13T05:33:27.452Z,99798.83
2019-03-13T05:35:56.301Z,99808.62
2019-03-13T05:38:25.075Z,99799.14
2019-03-13T05:40:53.939Z,99816.41
2019-03-13T05:43:22.858Z,99811.18
2019-03-13T05:45:51.694Z,99814.66
2019-03-13T05:48:20.575Z,99819.29
2019-03-13T05:50:49.453Z,99822.42
2019-03-13T05:53:18.350Z,99827.15
2019-03-13T05:55:47.442Z,99824.99
2019-03-13T05:58:16.411Z,99828.41
2019-03-13T06:00:46.021Z,99826.67
2019-03-13T06:03:15.046Z,99828.13
2019-03-13T06:05:43.948Z,99822.48
2019-03-13T06:08:12.910Z,99828.80
2019-03-13T06:10:41.866Z,99836.72
2019-03-13T06:13:10.722Z,99831.17
2019-03-13T06:15:39.560Z,99827.40
2019-03-13T06:18:09.983Z,99827.40
2019-03-13T06:20:38.918Z,99824.11
2019-03-13T06:23:07.902Z,99824.08
2019-03-13T06:25:36.704Z,99820.91
2019-03-13T06:28:05.687Z,99811.72
2019-03-13T06:30:34.793Z,99817.67
2019-03-13T06:33:03.671Z,99817.67
2019-03-13T06:35:32.591Z,99828.70
2019-03-13T06:38:01.527Z,99835.55
2019-03-13T06:40:30.457Z,99828.48
2019-03-13T06:42:59.337Z,99828.73
2019-03-13T06:45:28.292Z,99828.41
2019-03-13T06:47:57.355Z,99838.52
2019-03-13T06:50:26.297Z,99828.92
2019-03-13T06:52:55.219Z,99836.55
2019-03-13T06:55:24.240Z,99838.48
2019-03-13T06:57:53.073Z,99834.08
2019-03-13T07:00:37.427Z,99836.52
2019-03-13T07:03:19.772Z,99826.93
2019-03-13T07:06:10.846Z,99831.40
2019-03-13T07:08:56.385Z,99818.59
2019-03-13T07:11:47.151Z,99833.72
2019-03-13T07:14:21.908Z,99839.91
2019-03-13T07:17:01.984Z,99834.08
2019-03-13T07:19:49.978Z,99833.55
2019-03-13T07:22:36.482Z,99837.12
2019-03-13T07:25:30.455Z,99833.99
2019-03-13T07:28:16.867Z,99841.98
2019-03-13T07:31:10.826Z,99837.92
2019-03-13T07:34:06.460Z,99823.42
2019-03-13T07:36:45.584Z,99824.67
2019-03-13T07:39:38.854Z,99815.92
2019-03-13T07:42:17.792Z,99815.41
2019-03-13T07:45:14.827Z,99779.98
2019-03-13T07:47:54.090Z,99832.07
2019-03-13T07:50:35.487Z,99832.55
2019-03-13T07:53:26.320Z,99837.98
2019-03-13T07:56:04.425Z,99823.75
2019-03-13T07:58:52.720Z,99838.48
2019-03-13T08:01:43.392Z,99831.92
2019-03-13T08:04:19.075Z,99837.45
2019-03-13T08:07:13.133Z,99830.20
2019-03-13T08:10:00.956Z,99821.52
2019-03-13T08:12:56.492Z,99827.91
2019-03-13T08:15:43.333Z,99820.33
2019-03-13T08:18:31.340Z,99841.05
2019-03-13T08:21:25.656Z,99813.23
2019-03-13T08:24:19.619Z,99830.64
2019-03-13T08:27:16.602Z,99821.02
2019-03-13T08:30:06.748Z,99839.80
2019-03-13T08:32:53.293Z,99841.62
2019-03-13T08:35:44.285Z,99853.63
2019-03-13T08:38:35.025Z,99842.53
2019-03-13T08:41:32.205Z,99841.64
2019-03-13T08:44:32.477Z,99841.48
2019-03-13T08:47:32.577Z,99834.89
2019-03-13T08:50:07.829Z,99824.75
2019-03-13T08:53:10.767Z,99847.22
2019-03-13T08:56:01.659Z,99836.00
2019-03-13T08:58:47.270Z,99824.83
2019-03-13T09:01:27.548Z,99830.53
2019-03-13T09:04:06.499Z,99820.36
2019-03-13T09:06:46.895Z,99799.85
2019-03-13T09:09:32.077Z,99815.82
2019-03-13T09:12:23.385Z,99811.23
2019-03-13T09:14:58.040Z,99811.91
2019-03-13T09:17:43.635Z,99799.81
2019-03-13T09:20:46.789Z,99803.91
2019-03-13T09:23:33.310Z,99795.78
2019-03-13T09:26:20.013Z,99793.95
2019-03-13T09:28:58.585Z,99776.08
2019-03-13T09:31:47.400Z,99788.21
2019-03-13T09:34:32.912Z,99792.09
2019-03-13T09:37:14.864Z,99802.83
2019-03-13T09:40:01.655Z,99806.94
2019-03-13T09:42:43.189Z,99790.45
2019-03-13T09:45:37.545Z,99811.30
2019-03-13T09:48:28.528Z,99815.00
2019-03-13T09:51:07.761Z,99820.83
2019-03-13T09:53:54.440Z,99831.15
2019-03-13T09:56:33.848Z,99828.34
2019-03-13T09:59:43.328Z,99833.27
2019-03-13T10:02:25.821Z,99835.09
2019-03-13T10:05:16.221Z,99807.41
2019-03-13T10:08:04.032Z,99812.96
2019-03-13T10:10:42.455Z,99801.53
2019-03-13T10:13:24.761Z,99811.45
2019-03-13T10:16:31.044Z,99793.58
2019-03-13T10:19:22.420Z,99804.09
2019-03-13T10:21:58.016Z,99792.08
2019-03-13T10:24:54.803Z,99793.00
2019-03-13T10:27:44.938Z,99770.58
2019-03-13T10:30:51.573Z,99766.19
2019-03-13T10:33:32.796Z,99775.38
2019-03-13T10:36:36.217Z,99787.57
2019-03-13T10:39:41.767Z,99786.31
2019-03-13T10:42:32.447Z,99761.86
2019-03-13T10:45:09.862Z,99779.94
2019-03-13T10:47:54.216Z,99758.17
2019-03-13T10:50:42.148Z,99745.20
2019-03-13T10:53:39.091Z,99747.92
2019-03-13T10:56:25.920Z,99761.98
2019-03-13T10:59:12.792Z,99755.09
2019-03-13T11:01:51.681Z,99744.59
2019-03-13T11:04:38.241Z,99747.88
2019-03-13T11:07:16.027Z,99739.20
2019-03-13T11:09:51.390Z,99743.83
2019-03-13T11:12:31.818Z,99722.33
2019-03-13T11:15:08.912Z,99704.30
2019-03-13T11:17:50.712Z,99740.72
2019-03-13T11:20:38.637Z,99733.92
2019-03-13T11:23:14.082Z,99744.60
2019-03-13T11:25:54.320Z,99714.62
2019-03-13T11:28:32.449Z,99725.15
2019-03-13T11:31:20.309Z,99737.98
2019-03-13T11:34:14.592Z,99737.73
2019-03-13T11:37:02.559Z,99729.67
2019-03-13T11:39:56.437Z,99712.36
2019-03-13T11:42:38.203Z,99723.69
2019-03-13T11:45:25.182Z,99717.33
2019-03-13T11:48:25.224Z,99713.84
2019-03-13T11:51:22.684Z,99720.38
2019-03-13T11:54:10.685Z,99704.09
2019-03-13T11:56:48.920Z,99698.85
2019-03-13T11:59:33.999Z,99700.16
2019-03-13T12:02:30.864Z,99690.02
2019-03-13T12:05:09.281Z,99695.19
2019-03-13T12:07:53.817Z,99703.91
2019-03-13T12:10:44.139Z,99688.41
2019-03-13T12:13:19.789Z,99686.64
2019-03-13T12:16:11.175Z,99675.73
2019-03-13T12:19:08.204Z,99681.81
2019-03-13T12:21:53.206Z,99673.58
2019-03-13T12:24:41.249Z,99675.73
2019-03-13T12:27:35.423Z,99667.33
2019-03-13T12:30:16.635Z,99681.53
2019-03-13T12:33:10.611Z,99685.62
2019-03-13T12:36:00.521Z,99669.69
2019-03-13T12:38:57.708Z,99671.13
2019-03-13T12:41:44.304Z,99675.67
2019-03-13T12:44:23.099Z,99670.00
2019-03-13T12:47:07.216Z,99646.03
2019-03-13T12:49:49.837Z,99661.16
2019-03-13T12:52:31.040Z,99648.88
2019-03-13T12:55:25.102Z,99630.40
2019-03-13T12:58:00.055Z,99644.56
2019-03-13T13:00:57.849Z,99636.97
2019-03-13T13:03:41.431Z,99638.40
2019-03-13T13:06:16.481Z,99644.87
2019-03-13T13:09:04.269Z,99626.17
2019-03-13T13:11:51.070Z,99638.00
2019-03-13T13:14:36.787Z,99632.05
2019-03-13T13:17:30.699Z,99634.82
2019-03-13T13:19:59.549Z,99619.08
2019-03-13T13:22:28.535Z,99617.12
2019-03-13T13:24:57.516Z,99623.48
2019-03-13T13:27:26.516Z,99620.70
2019-03-13T13:29:55.476Z,99613.92
2019-03-13T13:32:24.476Z,99624.42
2019-03-13T13:34:53.350Z,99611.23
2019-03-13T13:37:22.131Z,99626.19
2019-03-13T13:39:50.997Z,99590.60
2019-03-13T13:42:19.941Z,99619.58
2019-03-13T13:44:48.766Z,99616.68
2019-03-13T13:47:17.636Z,99605.80
2019-03-13T13:49:58.856Z,99596.95
2019-03-13T13:52:17.434Z,99599.20
2019-03-13T13:54:46.326Z,99582.75
2019-03-13T13:57:15.347Z,99591.42
2019-03-13T13:59:44.403Z,99601.05
2019-03-13T14:02:13.393Z,99565.77
2019-03-13T14:04:42.380Z,99580.78
2019-03-13T14:07:11.369Z,99588.77
2019-03-13T14:09:40.269Z,99582.63
2019-03-13T14:12:09.223Z,99596.73
2019-03-13T14:14:38.097Z,99588.72
2019-03-13T14:17:06.910Z,99588.94
2019-03-13T14:19:35.678Z,99564.03
2019-03-13T14:22:04.673Z,99598.03
2019-03-13T14:24:33.551Z,99596.80
2019-03-13T14:27:13.966Z,99582.83
2019-03-13T14:29:33.207Z,99606.45
2019-03-13T14:32:02.019Z,99595.37
2019-03-13T14:34:31.020Z,99584.68
2019-03-13T14:36:59.954Z,99601.11
2019-03-13T14:39:28.787Z,99561.66
2019-03-13T14:41:57.759Z,99585.07
2019-03-13T14:44:26.676Z,99582.31
2019-03-13T14:46:55.587Z,99560.00
2019-03-13T14:49:24.527Z,99583.55
2019-03-13T14:51:53.516Z,99571.02
2019-03-13T14:54:22.420Z,99580.16
2019-03-13T14:56:51.311Z,99576.36
2019-03-13T14:59:20.336Z,99583.53
2019-03-13T15:01:49.202Z,99581.37
2019-03-13T15:04:18.271Z,99573.17
2019-03-13T15:06:47.157Z,99585.29
2019-03-13T15:09:16.041Z,99576.54
2019-03-13T15:11:46.194Z,99580.16
2019-03-13T15:14:15.225Z,99582.52
2019-03-13T15:16:44.250Z,99571.32
2019-03-13T15:19:13.104Z,99577.58
2019-03-13T15:21:42.068Z,99574.69
2019-03-13T15:24:10.930Z,99573.69
2019-03-13T15:26:39.687Z,99576.36
2019-03-13T15:29:08.783Z,99568.01
2019-03-13T15:31:37.696Z,99577.27
2019-03-13T15:34:06.767Z,99556.92
2019-03-13T15:36:35.666Z,99564.20
2019-03-13T15:39:07.215Z,99569.05
2019-03-13T15:41:36.209Z,99570.20
2019-03-13T15:44:05.228Z,99567.17
2019-03-13T15:46:34.227Z,99569.34
2019-03-13T15:49:03.307Z,99574.05
2019-03-13T15:51:32.084Z,99553.94
2019-03-13T15:54:00.976Z,99570.79
2019-03-13T15:56:29.901Z,99601.86
2019-03-13T15:58:58.830Z,99553.55
2019-03-13T16:01:27.650Z,99558.66
2019-03-13T16:03:56.490Z,99561.02
2019-03-13T16:06:25.402Z,99566.36
2019-03-13T16:08:54.327Z,99568.09
2019-03-13T16:11:23.225Z,99567.13
2019-03-13T16:13:52.219Z,99561.77
2019-03-13T16:16:21.210Z,99534.38
2019-03-13T16:18:50.134Z,99535.41
2019-03-13T16:21:19.002Z,99558.84
2019-03-13T16:23:48.282Z,99564.47
2019-03-13T16:26:17.090Z,99559.83
2019-03-13T16:28:46.061Z,99555.83
2019-03-13T16:31:14.977Z,99559.39
2019-03-13T16:33:43.897Z,99537.17
2019-03-13T16:36:12.652Z,99577.22
2019-03-13T16:38:41.936Z,99571.19
2019-03-13T16:41:11.179Z,99567.92
2019-03-13T16:43:40.117Z,99574.48
2019-03-13T16:46:09.063Z,99569.80
2019-03-13T16:48:37.968Z,99569.28
2019-03-13T16:51:06.971Z,99569.45
2019-03-13T16:53:35.865Z,99571.44
2019-03-13T16:56:05.975Z,99559.62
2019-03-13T16:58:34.926Z,99554.59
2019-03-13T17:01:03.953Z,99571.12
2019-03-13T17:03:32.849Z,99552.75
2019-03-13T17:06:01.699Z,99554.89
2019-03-13T17:08:30.480Z,99555.61
2019-03-13T17:10:59.380Z,99558.59
2019-03-13T17:13:28.267Z,99555.91
2019-03-13T17:15:57.258Z,99544.42
2019-03-13T17:18:26.279Z,99547.38
2019-03-13T17:20:55.120Z,99554.23
2019-03-13T17:23:24.066Z,99552.56
2019-03-13T17:25:52.904Z,99553.28
2019-03-13T17:28:21.982Z,99563.03
2019-03-13T17:30:50.890Z,99562.08
2019-03-13T17:33:19.726Z,99569.23
2019-03-13T17:35:48.628Z,99567.83
2019-03-13T17:38:17.462Z,99586.06
2019-03-13T17:40:46.372Z,99595.60
2019-03-13T17:43:15.276Z,99589.00
2019-03-13T17:45:44.146Z,99597.96
2019-03-13T17:48:13.221Z,99591.56
2019-03-13T17:50:42.248Z,99588.80
2019-03-13T17:53:11.231Z,99584.70
2019-03-13T17:55:40.235Z,99595.88
2019-03-13T17:58:09.347Z,99589.95
2019-03-13T18:00:44.447Z,99607.40
2019-03-13T18:03:13.555Z,99609.86
2019-03-13T18:05:42.443Z,99612.12
2019-03-13T18:08:11.396Z,99622.55
2019-03-13T18:10:40.321Z,99620.52
2019-03-13T18:13:09.404Z,99614.34
2019-03-13T18:15:38.349Z,99599.94
2019-03-13T18:18:07.232Z,99630.03
2019-03-13T18:20:36.237Z,99623.23
2019-03-13T18:23:05.221Z,99605.75
2019-03-13T18:25:34.216Z,99641.17
2019-03-13T18:28:03.089Z,99629.27
2019-03-13T18:30:32.285Z,99641.63
2019-03-13T18:33:01.148Z,99635.68
2019-03-13T18:35:30.101Z,99653.93
2019-03-13T18:37:59.028Z,99659.20
2019-03-13T18:40:28.012Z,99665.50
2019-03-13T18:42:57.089Z,99677.12
2019-03-13T18:45:26.623Z,99702.09
2019-03-13T18:47:55.638Z,99739.78
2019-03-13T18:50:24.568Z,99756.05
2019-03-13T18:52:53.636Z,99722.42
2019-03-13T18:55:22.989Z,99740.39
2019-03-13T18:57:51.988Z,99727.23
2019-03-13T19:00:23.129Z,99731.72
2019-03-13T19:02:52.137Z,99731.94
2019-03-13T19:05:21.285Z,99729.16
2019-03-13T19:07:50.229Z,99720.61
2019-03-13T19:10:19.592Z,99709.05
2019-03-13T19:12:48.564Z,99670.53
2019-03-13T19:15:19.723Z,99669.89
2019-03-13T19:17:51.984Z,99709.11
2019-03-13T19:20:21.906Z,99688.47
2019-03-13T19:22:51.299Z,99707.67
2019-03-13T19:25:20.520Z,99712.88
2019-03-13T19:27:49.492Z,99726.82
2019-03-13T19:30:20.531Z,99730.48
2019-03-13T19:32:49.585Z,99730.69
2019-03-13T19:35:18.827Z,99731.89
2019-03-13T19:37:47.798Z,99743.27
2019-03-13T19:40:17.003Z,99743.04
2019-03-13T19:42:45.890Z,99733.77
2019-03-13T19:45:17.214Z,99732.02
2019-03-13T19:47:46.105Z,99733.15
2019-03-13T19:50:15.159Z,99733.66
2019-03-13T19:52:47.241Z,99744.92
2019-03-13T19:55:14.963Z,99755.13
2019-03-13T19:57:43.954Z,99757.12
2019-03-13T20:00:14.806Z,99752.97
2019-03-13T20:02:43.690Z,99758.95
2019-03-13T20:05:13.452Z,99758.64
2019-03-13T20:07:42.640Z,99760.60
2019-03-13T20:10:14.255Z,99753.83
2019-03-13T20:12:43.221Z,99760.48
2019-03-13T20:15:14.184Z,99761.80
2019-03-13T20:17:43.233Z,99751.27
2019-03-13T20:20:13.281Z,99757.91
2019-03-13T20:22:42.405Z,99760.25
2019-03-13T20:25:11.870Z,99760.06
2019-03-13T20:27:40.843Z,99759.97
2019-03-13T20:30:12.420Z,99769.62
2019-03-13T20:32:41.250Z,99783.58
2019-03-13T20:35:10.480Z,99776.74
2019-03-13T20:37:39.458Z,99780.36
2019-03-13T20:40:10.473Z,99772.16
2019-03-13T20:42:39.464Z,99778.81
2019-03-13T20:45:09.971Z,99789.01
2019-03-13T20:47:38.903Z,99782.70
2019-03-13T20:50:08.127Z,99723.36
2019-03-13T20:52:37.243Z,99790.53
2019-03-13T20:55:06.672Z,99804.94
2019-03-13T20:57:35.651Z,99803.52
2019-03-13T21:00:05.457Z,99805.26
2019-03-13T21:02:34.430Z,99799.52
2019-03-13T21:05:03.343Z,99818.59
2019-03-13T21:07:32.227Z,99803.27
2019-03-13T21:10:01.210Z,99823.59
2019-03-13T21:12:30.168Z,99825.13
2019-03-13T21:14:59.183Z,99828.70
2019-03-13T21:17:28.282Z,99816.82
2019-03-13T21:19:57.260Z,99836.78
2019-03-13T21:22:26.141Z,99834.84
2019-03-13T21:24:55.021Z,99851.54
2019-03-13T21:27:24.007Z,99843.37
2019-03-13T21:29:52.863Z,99832.50
2019-03-13T21:32:21.731Z,99832.53
2019-03-13T21:34:50.669Z,99838.56
2019-03-13T21:37:19.556Z,99846.90
2019-03-13T21:39:48.323Z,99845.83
2019-03-13T21:42:17.345Z,99861.45
2019-03-13T21:44:46.324Z,99868.92
2019-03-13T21:47:15.334Z,99868.03
2019-03-13T21:49:45.378Z,99864.92
2019-03-13T21:52:14.251Z,99866.66
2019-03-13T21:54:43.107Z,99873.05
2019-03-13T21:57:12.004Z,99877.91
2019-03-13T21:59:41.320Z,99905.47
2019-03-13T22:02:10.185Z,99888.25
2019-03-13T22:04:39.178Z,99881.27
2019-03-13T22:07:08.095Z,99882.30
2019-03-13T22:09:36.888Z,99881.81
2019-03-13T22:12:06.151Z,99879.66
2019-03-13T22:14:35.017Z,99877.82
2019-03-13T22:17:03.923Z,99886.84
2019-03-13T22:19:32.872Z,99893.34
2019-03-13T22:22:01.830Z,99887.97
2019-03-13T22:24:30.585Z,99887.20
2019-03-13T22:26:59.494Z,99880.81
2019-03-13T22:29:28.416Z,99887.67
2019-03-13T22:31:57.325Z,99906.48
2019-03-13T22:34:26.121Z,99913.01
2019-03-13T22:36:55.087Z,99928.38
2019-03-13T22:39:23.913Z,99910.13
2019-03-13T22:41:52.887Z,99907.03
2019-03-13T22:44:21.705Z,99892.56
2019-03-13T22:46:50.640Z,99877.39
2019-03-13T22:49:19.495Z,99885.37
2019-03-13T22:51:48.281Z,99883.41
2019-03-13T22:54:17.024Z,99891.88
2019-03-13T22:56:45.852Z,99895.06
2019-03-13T22:59:14.677Z,99895.06
2019-03-13T23:01:43.835Z,99909.23
2019-03-13T23:04:12.832Z,99907.53
2019-03-13T23:06:41.878Z,99906.70
2019-03-13T23:09:12.848Z,99914.04
2019-03-13T23:11:42.164Z,99909.37
2019-03-13T23:14:11.112Z,99940.69
2019-03-13T23:16:39.895Z,99940.33
2019-03-13T23:19:08.779Z,99944.95
2019-03-13T23:21:37.700Z,99925.62
2019-03-13T23:24:06.619Z,99935.95
2019-03-13T23:26:35.388Z,99945.88
2019-03-13T23:29:04.267Z,99940.70
2019-03-13T23:31:33.239Z,99934.23
2019-03-13T23:34:02.249Z,99937.27
2019-03-13T23:36:31.233Z,99940.87
2019-03-13T23:39:00.085Z,99946.46
2019-03-13T23:41:28.919Z,99947.95
2019-03-13T23:43:57.821Z,99945.41
2019-03-13T23:46:26.657Z,99952.00
2019-03-13T23:48:55.416Z,99945.98
2019-03-13T23:51:24.195Z,99945.02
2019-03-13T23:53:53.154Z,99926.09
2019-03-13T23:56:22.122Z,99925.78
2019-03-13T23:58:50.937Z,99955.34
